Time;durP1;ratioP1;P1;durP2;ratioP2;P2;SDS_P1;SDS_P2;PMS_P1;PMS_P2;Temp;Humidity;BMP_temperature;BMP_pressure;BME280_temperature;BME280_humidity;BME280_pressure;Samples;Min_cycle;Max_cycle;Signal;HPM_P1;HPM_P2
2024/02/16 00:04:29;;;;;;;3.40;1.80;;;22.40;52.10;;;;;;10353299;28;20046;-60
2024/02/16 00:09:33;;;;;;;2.67;1.67;;;22.30;52.10;;;;;;10356980;28;20045;-60
2024/02/16 00:14:34;;;;;;;3.08;1.60;;;22.30;52.00;;;;;;10356357;28;20050;-59
2024/02/16 00:19:36;;;;;;;2.90;1.90;;;22.30;51.90;;;;;;10359889;28;20520;-59
2024/02/16 00:24:39;;;;;;;2.42;1.77;;;22.20;51.90;;;;;;10361061;28;20046;-61
2024/02/16 00:29:40;;;;;;;3.03;1.70;;;22.20;52.10;;;;;;10364714;28;20046;-60
2024/02/16 00:34:42;;;;;;;2.08;1.70;;;22.20;52.10;;;;;;10357466;28;20049;-61
2024/02/16 00:39:45;;;;;;;3.35;1.52;;;22.10;51.90;;;;;;10357847;28;20052;-61
2024/02/16 00:44:46;;;;;;;2.63;1.70;;;22.10;52.00;;;;;;10356415;28;20399;-61
2024/02/16 00:49:48;;;;;;;2.72;1.83;;;22.10;51.90;;;;;;10362227;28;20141;-61
2024/02/16 00:54:51;;;;;;;2.90;1.70;;;22.10;51.80;;;;;;10360222;28;20048;-61
2024/02/16 00:59:53;;;;;;;3.08;1.80;;;22.00;52.00;;;;;;10358138;28;20048;-61
2024/02/16 01:04:57;;;;;;;2.20;1.60;;;22.00;51.80;;;;;;10354587;28;20073;-61
2024/02/16 01:10:03;;;;;;;2.25;1.75;;;22.00;51.80;;;;;;10353077;28;20080;-60
2024/02/16 01:15:05;;;;;;;2.47;1.73;;;22.00;51.80;;;;;;10350005;28;20046;-61
2024/02/16 01:20:10;;;;;;;3.30;1.63;;;21.90;51.70;;;;;;10353627;28;20051;-60
2024/02/16 01:25:13;;;;;;;2.95;1.70;;;21.90;51.80;;;;;;10352833;28;20046;-61
2024/02/16 01:30:15;;;;;;;3.45;1.70;;;21.90;51.80;;;;;;10357445;28;20136;-58
2024/02/16 01:35:17;;;;;;;2.50;1.50;;;21.80;51.70;;;;;;10353007;28;20049;-62
2024/02/16 01:40:20;;;;;;;2.25;1.35;;;21.80;51.60;;;;;;10360115;28;20045;-60
2024/02/16 01:45:21;;;;;;;2.97;1.48;;;21.70;51.60;;;;;;10360200;28;20046;-61
2024/02/16 01:50:23;;;;;;;2.70;1.50;;;21.80;51.60;;;;;;10362023;28;20049;-61
2024/02/16 01:55:26;;;;;;;2.22;1.50;;;21.70;51.50;;;;;;10355949;28;20050;-61
2024/02/16 02:00:27;;;;;;;3.83;1.20;;;21.80;51.50;;;;;;10352049;28;20054;-60
2024/02/16 02:05:29;;;;;;;2.15;1.23;;;21.70;51.60;;;;;;10353852;28;20054;-60
2024/02/16 02:10:32;;;;;;;3.25;1.60;;;21.60;51.10;;;;;;10351227;28;20049;-59
2024/02/16 02:15:34;;;;;;;3.13;1.58;;;21.60;51.50;;;;;;10357128;28;20050;-61
2024/02/16 02:20:36;;;;;;;2.60;1.80;;;21.60;51.40;;;;;;10354319;28;20076;-60
2024/02/16 02:25:39;;;;;;;3.30;1.60;;;21.50;51.50;;;;;;10354482;28;20050;-60
2024/02/16 02:30:41;;;;;;;1.88;1.27;;;21.50;51.60;;;;;;10350023;28;20096;-61
2024/02/16 02:35:43;;;;;;;3.75;1.50;;;21.50;51.60;;;;;;10355455;28;20052;-60
2024/02/16 02:40:46;;;;;;;3.30;1.48;;;21.40;51.60;;;;;;10361381;28;20124;-61
2024/02/16 02:45:47;;;;;;;2.30;1.50;;;21.40;51.50;;;;;;10361745;28;20129;-61
2024/02/16 02:50:49;;;;;;;3.80;1.58;;;21.40;51.50;;;;;;10361534;28;20045;-61
2024/02/16 02:55:52;;;;;;;1.65;1.30;;;21.50;51.40;;;;;;10365166;28;20056;-61
2024/02/16 03:00:54;;;;;;;2.70;1.67;;;21.40;51.40;;;;;;10363088;28;20389;-61
2024/02/16 03:05:55;;;;;;;2.35;1.38;;;21.40;51.60;;;;;;10366825;28;20049;-61
2024/02/16 03:11:00;;;;;;;1.88;1.42;;;21.30;51.50;;;;;;10361478;28;20058;-59
2024/02/16 03:16:02;;;;;;;3.65;1.48;;;21.30;51.50;;;;;;10360636;28;20049;-61
2024/02/16 03:21:03;;;;;;;2.17;1.35;;;21.30;51.70;;;;;;10357506;28;20053;-58
2024/02/16 03:26:06;;;;;;;2.35;1.48;;;21.30;51.50;;;;;;10361262;28;20050;-61
2024/02/16 03:31:08;;;;;;;3.28;1.40;;;21.30;51.40;;;;;;10359284;28;20141;-60
2024/02/16 03:36:10;;;;;;;2.22;1.23;;;21.30;51.40;;;;;;10361961;28;20131;-61
2024/02/16 03:41:15;;;;;;;1.58;1.23;;;21.20;51.40;;;;;;10358244;28;20078;-60
2024/02/16 03:46:16;;;;;;;3.13;1.40;;;21.20;51.50;;;;;;10358670;28;20046;-61
2024/02/16 03:51:18;;;;;;;2.80;1.13;;;21.20;51.60;;;;;;10353288;28;20042;-60
2024/02/16 03:56:21;;;;;;;1.70;1.15;;;21.10;51.60;;;;;;10354536;28;20046;-61
2024/02/16 04:01:23;;;;;;;2.55;1.38;;;21.10;51.50;;;;;;10356828;28;20053;-60
2024/02/16 04:06:24;;;;;;;1.75;1.20;;;21.30;51.10;;;;;;10360849;28;20042;-60
2024/02/16 04:11:29;;;;;;;2.10;1.20;;;21.60;51.00;;;;;;10358086;28;20050;-60
2024/02/16 04:16:31;;;;;;;4.22;1.48;;;21.80;50.90;;;;;;10363958;28;20124;-60
2024/02/16 04:21:33;;;;;;;1.85;1.20;;;22.00;50.50;;;;;;10360156;28;20054;-60
2024/02/16 04:26:36;;;;;;;2.90;1.27;;;22.20;50.30;;;;;;10355902;28;20054;-61
2024/02/16 04:31:39;;;;;;;2.20;1.48;;;22.30;50.10;;;;;;10355726;28;20057;-61
2024/02/16 04:36:42;;;;;;;1.88;1.25;;;22.30;49.70;;;;;;10354074;28;20052;-60
2024/02/16 04:41:45;;;;;;;2.28;1.30;;;22.40;49.60;;;;;;10357286;28;20073;-61
2024/02/16 04:46:46;;;;;;;2.15;1.23;;;22.50;49.30;;;;;;10357919;28;20491;-59
2024/02/16 04:51:48;;;;;;;2.35;1.20;;;22.60;49.20;;;;;;10357341;28;20049;-60
2024/02/16 04:56:51;;;;;;;1.75;0.98;;;22.70;49.10;;;;;;10352395;28;20038;-61
2024/02/16 05:01:52;;;;;;;3.03;1.30;;;22.80;48.80;;;;;;10348264;28;20045;-60
2024/02/16 05:06:57;;;;;;;2.38;1.20;;;22.90;48.50;;;;;;10349594;28;20052;-60
2024/02/16 05:12:00;;;;;;;1.75;1.30;;;22.90;48.20;;;;;;10358337;28;20046;-59
2024/02/16 05:17:01;;;;;;;2.13;1.10;;;22.90;48.40;;;;;;10355458;28;20050;-60
2024/02/16 05:22:03;;;;;;;2.30;1.23;;;23.00;48.10;;;;;;10360660;28;20050;-60
2024/02/16 05:27:06;;;;;;;1.67;1.10;;;23.10;47.80;;;;;;10355383;28;20046;-57
2024/02/16 05:32:08;;;;;;;3.08;1.17;;;23.10;47.60;;;;;;10359028;28;20058;-61
2024/02/16 05:37:09;;;;;;;1.58;1.20;;;23.00;47.60;;;;;;10350548;28;20052;-59
2024/02/16 05:42:12;;;;;;;2.97;1.27;;;23.10;47.60;;;;;;10351600;28;20133;-59
2024/02/16 05:47:14;;;;;;;1.70;1.20;;;23.20;47.30;;;;;;10348801;28;20577;-60
2024/02/16 05:52:18;;;;;;;1.65;1.00;;;23.20;47.10;;;;;;10352042;28;20046;-59
2024/02/16 05:57:21;;;;;;;1.20;1.00;;;23.30;47.00;;;;;;10353218;28;20420;-61
2024/02/16 06:02:25;;;;;;;2.38;1.30;;;23.30;46.90;;;;;;10357908;28;20068;-61
2024/02/16 06:07:27;;;;;;;1.70;1.13;;;23.40;46.50;;;;;;10351952;28;20050;-60
2024/02/16 06:12:30;;;;;;;2.22;1.27;;;23.30;46.40;;;;;;10358953;28;20075;-59
2024/02/16 06:17:31;;;;;;;3.40;1.20;;;23.20;46.60;;;;;;10354384;28;20057;-61
2024/02/16 06:22:33;;;;;;;2.63;1.23;;;22.90;47.00;;;;;;10357290;28;20050;-60
2024/02/16 06:27:36;;;;;;;2.25;1.30;;;22.80;47.00;;;;;;10364568;28;20066;-61
2024/02/16 06:32:38;;;;;;;4.00;1.20;;;22.80;47.00;;;;;;10363954;28;20134;-61
2024/02/16 06:37:40;;;;;;;2.45;1.33;;;22.70;47.00;;;;;;10367233;28;20560;-61
2024/02/16 06:42:42;;;;;;;2.03;1.20;;;22.70;47.00;;;;;;10359367;28;20048;-59
2024/02/16 06:47:44;;;;;;;2.03;1.30;;;22.70;47.10;;;;;;10357463;28;20046;-61
2024/02/16 06:52:46;;;;;;;2.58;1.30;;;22.60;47.10;;;;;;10355854;28;20046;-60
2024/02/16 06:57:50;;;;;;;3.00;1.40;;;22.60;47.00;;;;;;10358851;28;20046;-61
2024/02/16 07:02:51;;;;;;;3.22;1.40;;;22.60;47.10;;;;;;10360881;28;20391;-59
2024/02/16 07:07:53;;;;;;;3.85;1.40;;;22.60;47.10;;;;;;10362775;28;20399;-60
2024/02/16 07:12:56;;;;;;;3.08;1.33;;;22.60;47.30;;;;;;10365429;28;20492;-61
2024/02/16 07:17:58;;;;;;;2.85;1.20;;;22.70;47.20;;;;;;10361536;28;20457;-61
2024/02/16 07:23:01;;;;;;;4.03;1.30;;;22.70;47.40;;;;;;10358742;28;20073;-61
2024/02/16 07:28:05;;;;;;;5.90;1.75;;;22.70;47.90;;;;;;10357038;28;20636;-60
2024/02/16 07:33:07;;;;;;;6.63;1.67;;;22.90;49.50;;;;;;10356315;28;20057;-60
2024/02/16 07:38:11;;;;;;;4.22;1.42;;;23.00;49.90;;;;;;10356485;28;20522;-58
2024/02/16 07:43:14;;;;;;;4.70;1.50;;;23.20;50.00;;;;;;10363268;28;20048;-57
2024/02/16 07:48:18;;;;;;;3.72;1.48;;;23.10;50.50;;;;;;10361890;28;20443;-59
2024/02/16 07:53:20;;;;;;;3.03;1.50;;;23.10;50.20;;;;;;10362453;28;20137;-57
2024/02/16 07:58:23;;;;;;;7.03;1.27;;;23.10;50.20;;;;;;10365584;28;20040;-58
2024/02/16 08:03:25;;;;;;;4.18;1.67;;;23.10;50.80;;;;;;10359728;28;20060;-58
2024/02/16 08:08:27;;;;;;;5.60;1.60;;;23.00;50.60;;;;;;10363514;28;20046;-60
2024/02/16 08:13:30;;;;;;;7.97;1.90;;;22.90;50.40;;;;;;10360945;28;20526;-59
2024/02/16 08:18:31;;;;;;;3.80;1.38;;;22.90;50.80;;;;;;10357433;28;20065;-59
2024/02/16 08:23:33;;;;;;;3.50;1.60;;;22.80;50.80;;;;;;10356559;28;20060;-59
2024/02/16 08:28:36;;;;;;;5.38;1.65;;;22.90;50.70;;;;;;10352693;28;20105;-59
2024/02/16 08:33:38;;;;;;;4.28;1.63;;;22.90;50.70;;;;;;10359981;28;20100;-58
2024/02/16 08:38:40;;;;;;;4.15;1.30;;;22.90;50.20;;;;;;10356340;28;20049;-58
2024/02/16 08:43:43;;;;;;;10.18;1.50;;;23.00;49.90;;;;;;10360279;28;20052;-60
2024/02/16 08:48:45;;;;;;;4.10;1.40;;;23.00;50.00;;;;;;10359119;28;20042;-58
2024/02/16 08:53:47;;;;;;;3.45;1.40;;;22.90;49.80;;;;;;10359265;28;20156;-59
2024/02/16 08:58:51;;;;;;;4.32;1.20;;;22.90;49.80;;;;;;10360835;28;20042;-58
2024/02/16 09:03:54;;;;;;;6.68;1.63;;;23.00;50.00;;;;;;10357627;28;20133;-60
2024/02/16 09:08:55;;;;;;;4.57;1.50;;;22.90;50.10;;;;;;10360452;28;20136;-59
2024/02/16 09:13:58;;;;;;;4.85;1.30;;;22.90;49.70;;;;;;10356493;28;20141;-60
2024/02/16 09:19:00;;;;;;;8.13;1.40;;;22.90;49.60;;;;;;10358023;28;20492;-62
2024/02/16 09:24:03;;;;;;;7.25;1.40;;;22.90;49.80;;;;;;10357047;28;20049;-60
2024/02/16 09:29:06;;;;;;;9.02;1.52;;;23.10;51.00;;;;;;10357372;28;20046;-60
2024/02/16 09:34:08;;;;;;;6.40;1.80;;;23.20;50.80;;;;;;10358591;28;20056;-60
2024/02/16 09:39:09;;;;;;;3.35;1.52;;;23.30;51.30;;;;;;10351431;28;20042;-58
2024/02/16 09:44:12;;;;;;;5.30;1.67;;;23.40;50.70;;;;;;10353110;28;20092;-60
2024/02/16 09:49:14;;;;;;;3.50;1.40;;;23.40;50.90;;;;;;10355890;28;20581;-60
2024/02/16 09:54:16;;;;;;;4.03;1.60;;;23.30;51.30;;;;;;10356359;28;20138;-59
2024/02/16 09:59:18;;;;;;;4.43;1.63;;;23.30;51.30;;;;;;10357679;28;20137;-59
2024/02/16 10:04:20;;;;;;;3.85;1.60;;;23.30;51.50;;;;;;10356070;28;20060;-60
2024/02/16 10:09:25;;;;;;;6.80;1.88;;;23.30;51.40;;;;;;10359251;28;20054;-61
2024/02/16 10:14:31;;;;;;;6.22;1.50;;;23.30;51.00;;;;;;10356379;28;20046;-61
2024/02/16 10:19:39;;;;;;;2.72;1.60;;;23.20;51.00;;;;;;10358764;28;20054;-60
2024/02/16 10:24:42;;;;;;;5.05;1.60;;;23.10;50.20;;;;;;10357866;28;20064;-60
2024/02/16 10:29:45;;;;;;;3.72;1.75;;;23.10;50.10;;;;;;10359548;28;20052;-59
2024/02/16 10:34:46;;;;;;;2.67;1.45;;;23.10;49.80;;;;;;10359016;28;20058;-60
2024/02/16 10:39:48;;;;;;;3.78;1.60;;;22.90;49.90;;;;;;10357754;28;20077;-60
2024/02/16 10:44:51;;;;;;;5.07;1.70;;;23.10;49.70;;;;;;10358876;28;20057;-59
2024/02/16 10:49:52;;;;;;;3.53;1.58;;;23.00;49.80;;;;;;10354629;28;20050;-56
2024/02/16 10:54:55;;;;;;;14.70;2.83;;;23.10;49.70;;;;;;10353659;28;20050;-58
2024/02/16 10:59:59;;;;;;;14.95;3.58;;;23.10;49.70;;;;;;10360130;28;20587;-59
2024/02/16 11:05:00;;;;;;;9.75;3.08;;;23.10;49.70;;;;;;10360841;28;20535;-57
2024/02/16 11:10:02;;;;;;;9.52;3.13;;;23.10;49.80;;;;;;10361503;28;20518;-59
2024/02/16 11:15:07;;;;;;;49.45;11.43;;;23.20;49.80;;;;;;10363907;28;20501;-59
2024/02/16 11:20:09;;;;;;;35.75;8.65;;;23.20;49.90;;;;;;10364608;28;20121;-60
2024/02/16 11:25:11;;;;;;;22.63;6.78;;;23.10;50.00;;;;;;10365343;28;20046;-60
2024/02/16 11:30:14;;;;;;;14.70;5.38;;;23.10;50.10;;;;;;10363827;28;20133;-60
2024/02/16 11:35:16;;;;;;;20.52;5.68;;;23.20;50.40;;;;;;10361991;28;20044;-60
2024/02/16 11:40:19;;;;;;;15.77;4.97;;;23.00;50.80;;;;;;10357728;28;20069;-60
2024/02/16 11:45:22;;;;;;;15.82;5.18;;;23.10;50.90;;;;;;10364624;28;20487;-59
2024/02/16 11:50:36;;;;;;;12.15;4.05;;;23.20;51.00;;;;;;10350722;28;20377;-60
2024/02/16 11:55:38;;;;;;;13.70;4.65;;;23.30;51.30;;;;;;10363995;28;20550;-58
2024/02/16 12:00:42;;;;;;;11.68;3.80;;;23.40;51.50;;;;;;10361788;28;20504;-57
2024/02/16 12:05:50;;;;;;;12.85;3.90;;;23.60;51.80;;;;;;10355181;28;20407;-60
2024/02/16 12:10:52;;;;;;;12.48;4.28;;;23.60;52.30;;;;;;10359353;28;20393;-58
2024/02/16 12:15:56;;;;;;;13.02;3.50;;;23.40;53.20;;;;;;10361637;28;20049;-60
2024/02/16 12:20:59;;;;;;;10.20;3.42;;;23.50;53.50;;;;;;10356564;28;20048;-59
2024/02/16 12:26:01;;;;;;;17.00;4.90;;;23.60;53.20;;;;;;10361995;28;20117;-61
2024/02/16 12:31:04;;;;;;;9.80;4.80;;;23.50;53.10;;;;;;10354291;28;20046;-60
2024/02/16 12:36:06;;;;;;;10.88;3.78;;;23.60;53.00;;;;;;10357378;28;20048;-59
2024/02/16 12:41:08;;;;;;;7.72;3.92;;;23.70;52.70;;;;;;10361159;28;20042;-59
2024/02/16 12:46:11;;;;;;;10.10;4.00;;;23.70;52.90;;;;;;10356902;28;20054;-58
2024/02/16 12:51:14;;;;;;;8.80;3.42;;;23.70;53.70;;;;;;10356943;28;20054;-59
2024/02/16 12:56:15;;;;;;;9.35;3.10;;;23.70;54.60;;;;;;10357349;28;20046;-55
2024/02/16 13:01:18;;;;;;;8.27;3.30;;;23.90;54.50;;;;;;10363324;28;20041;-57
2024/02/16 13:06:20;;;;;;;12.02;3.00;;;23.90;54.20;;;;;;10347408;28;20046;-59
2024/02/16 13:11:22;;;;;;;8.00;2.90;;;23.90;54.20;;;;;;10358188;28;20052;-59
2024/02/16 13:16:24;;;;;;;4.72;2.65;;;23.80;54.00;;;;;;10354760;28;20048;-56
2024/02/16 13:21:26;;;;;;;9.95;3.15;;;23.70;53.80;;;;;;10352640;28;20479;-57
2024/02/16 13:26:28;;;;;;;10.75;2.58;;;23.70;53.60;;;;;;10357870;28;20419;-58
2024/02/16 13:31:31;;;;;;;4.88;2.50;;;23.70;53.60;;;;;;10354359;28;20072;-58
2024/02/16 13:36:36;;;;;;;8.25;2.53;;;23.80;53.20;;;;;;10357454;28;20091;-60
2024/02/16 13:41:38;;;;;;;7.30;2.67;;;23.70;54.00;;;;;;10355784;28;20061;-57
2024/02/16 13:46:41;;;;;;;4.32;2.10;;;23.70;52.80;;;;;;10361723;28;20518;-59
2024/02/16 13:51:42;;;;;;;3.63;2.10;;;23.70;52.50;;;;;;10359036;28;20050;-58
2024/02/16 13:56:44;;;;;;;8.43;2.10;;;23.90;52.20;;;;;;10356374;28;20054;-57
2024/02/16 14:01:48;;;;;;;5.50;2.22;;;23.80;52.30;;;;;;10348922;28;20057;-58
2024/02/16 14:06:49;;;;;;;7.57;2.28;;;23.90;51.80;;;;;;10355122;28;20057;-58
2024/02/16 14:11:53;;;;;;;14.70;2.30;;;24.00;52.30;;;;;;10349750;28;20054;-60
2024/02/16 14:16:57;;;;;;;4.13;2.03;;;24.00;52.60;;;;;;10348427;28;20089;-60
2024/02/16 14:21:59;;;;;;;5.85;2.38;;;24.00;52.10;;;;;;10352299;28;20700;-60
2024/02/16 14:27:00;;;;;;;5.70;2.03;;;23.90;52.10;;;;;;10353202;28;20072;-57
2024/02/16 14:32:04;;;;;;;6.97;2.20;;;24.00;51.60;;;;;;10355084;28;20042;-59
2024/02/16 14:37:05;;;;;;;4.70;2.13;;;23.90;52.00;;;;;;10362820;28;20389;-57
2024/02/16 14:42:07;;;;;;;5.13;2.15;;;23.90;51.60;;;;;;10357429;28;20169;-58
2024/02/16 14:47:10;;;;;;;6.97;2.33;;;23.90;51.70;;;;;;10362745;28;20060;-59
2024/02/16 14:52:11;;;;;;;4.30;2.30;;;23.90;51.60;;;;;;10364236;28;20128;-59
2024/02/16 14:57:14;;;;;;;6.07;2.25;;;23.80;51.70;;;;;;10363194;28;20049;-57
2024/02/16 15:02:17;;;;;;;5.97;2.60;;;23.70;52.00;;;;;;10360106;28;20046;-56
2024/02/16 15:07:19;;;;;;;6.20;1.98;;;23.80;51.70;;;;;;10355693;28;20096;-57
2024/02/16 15:12:20;;;;;;;5.07;2.10;;;23.80;51.70;;;;;;10360262;28;20053;-59
2024/02/16 15:17:23;;;;;;;4.47;1.75;;;23.90;51.70;;;;;;10355345;28;20066;-59
2024/02/16 15:22:26;;;;;;;4.28;1.98;;;24.00;51.60;;;;;;10353061;28;20046;-59
2024/02/16 15:27:27;;;;;;;3.75;2.08;;;24.00;51.90;;;;;;10353428;28;20046;-60
2024/02/16 15:32:31;;;;;;;8.73;2.17;;;24.00;52.10;;;;;;10361240;28;20050;-53
2024/02/16 15:37:32;;;;;;;4.63;2.05;;;24.10;52.20;;;;;;10359710;28;20038;-52
2024/02/16 15:42:35;;;;;;;5.15;2.25;;;24.10;52.10;;;;;;10359544;28;20534;-55
2024/02/16 15:47:38;;;;;;;4.32;2.20;;;24.10;52.30;;;;;;10364917;28;20038;-54
2024/02/16 15:52:41;;;;;;;6.78;3.33;;;23.90;52.90;;;;;;10354576;28;20049;-52
2024/02/16 15:57:42;;;;;;;6.55;2.03;;;24.10;53.70;;;;;;10359157;28;20041;-53
2024/02/16 16:02:45;;;;;;;7.22;2.38;;;24.10;54.20;;;;;;10358689;28;20050;-51
2024/02/16 16:07:47;;;;;;;8.35;2.15;;;24.10;54.80;;;;;;10359412;28;20045;-54
2024/02/16 16:12:49;;;;;;;5.50;2.25;;;24.10;55.20;;;;;;10364831;28;20492;-53
2024/02/16 16:17:52;;;;;;;7.78;1.90;;;24.00;55.50;;;;;;10363443;28;20049;-50
2024/02/16 16:22:53;;;;;;;8.82;2.10;;;24.10;55.60;;;;;;10355266;28;20145;-51
2024/02/16 16:27:55;;;;;;;13.65;2.45;;;24.20;55.40;;;;;;10355817;28;20574;-53
2024/02/16 16:32:58;;;;;;;6.38;1.80;;;24.20;55.20;;;;;;10349980;28;20050;-52
2024/02/16 16:38:00;;;;;;;10.95;2.38;;;24.20;55.10;;;;;;10358249;28;20416;-52
2024/02/16 16:43:01;;;;;;;5.97;1.92;;;24.30;55.20;;;;;;10354510;28;20045;-53
2024/02/16 16:48:05;;;;;;;6.07;1.90;;;24.30;55.30;;;;;;10351426;28;20559;-53
2024/02/16 16:53:07;;;;;;;4.22;1.88;;;24.10;55.50;;;;;;10356015;28;20132;-55
2024/02/16 16:58:08;;;;;;;4.35;1.70;;;24.30;55.20;;;;;;10355632;28;20038;-52
2024/02/16 17:03:14;;;;;;;7.05;1.30;;;24.40;55.10;;;;;;10356631;28;20050;-52
2024/02/16 17:08:15;;;;;;;7.28;1.60;;;24.20;55.60;;;;;;10351718;28;20484;-53
2024/02/16 17:13:18;;;;;;;3.75;1.50;;;24.30;55.50;;;;;;10358915;28;20092;-57
2024/02/16 17:18:21;;;;;;;6.30;1.50;;;24.30;54.90;;;;;;10357871;28;20499;-54
2024/02/16 17:23:22;;;;;;;3.63;1.20;;;24.40;55.10;;;;;;10359978;28;20038;-49
2024/02/16 17:28:24;;;;;;;7.68;1.58;;;24.40;55.20;;;;;;10356954;28;20044;-52
2024/02/16 17:33:27;;;;;;;5.50;1.50;;;24.50;54.90;;;;;;10355194;28;20046;-52
2024/02/16 17:38:29;;;;;;;5.28;1.25;;;24.70;54.20;;;;;;10358125;28;20050;-53
2024/02/16 17:43:32;;;;;;;3.53;1.02;;;24.60;54.50;;;;;;10354889;28;20145;-55
2024/02/16 17:48:35;;;;;;;3.50;1.20;;;24.60;54.80;;;;;;10352519;28;20053;-57
2024/02/16 17:53:38;;;;;;;3.38;1.00;;;24.80;54.00;;;;;;10356156;28;20060;-50
2024/02/16 17:58:40;;;;;;;5.25;1.13;;;24.80;53.70;;;;;;10351560;28;20496;-56
2024/02/16 18:03:43;;;;;;;3.65;0.73;;;24.80;53.20;;;;;;10352788;28;20088;-53
2024/02/16 18:08:44;;;;;;;4.95;0.95;;;24.70;52.40;;;;;;10364328;28;20054;-50
2024/02/16 18:13:46;;;;;;;1.15;0.80;;;24.60;52.50;;;;;;10362861;28;20068;-52
2024/02/16 18:18:49;;;;;;;3.00;0.70;;;24.50;52.20;;;;;;10364762;28;20042;-51
2024/02/16 18:23:51;;;;;;;5.40;0.73;;;24.60;51.90;;;;;;10364357;28;20049;-51
2024/02/16 18:28:52;;;;;;;2.15;0.65;;;24.50;51.90;;;;;;10365460;28;20045;-52
2024/02/16 18:33:55;;;;;;;2.88;0.60;;;24.40;51.80;;;;;;10368377;28;20121;-51
2024/02/16 18:38:59;;;;;;;3.50;0.80;;;24.50;52.00;;;;;;10359963;28;20530;-54
2024/02/16 18:44:00;;;;;;;3.08;0.85;;;24.60;51.70;;;;;;10363091;28;20556;-54
2024/02/16 18:49:03;;;;;;;6.20;0.80;;;24.60;51.90;;;;;;10363046;28;20052;-50
2024/02/16 18:54:09;;;;;;;3.58;0.98;;;24.60;52.50;;;;;;10367405;28;20565;-52
2024/02/16 18:59:12;;;;;;;3.00;0.70;;;24.70;52.10;;;;;;10365928;28;20049;-50
2024/02/16 19:04:15;;;;;;;2.17;0.80;;;24.70;52.10;;;;;;10361411;28;20042;-50
2024/02/16 19:09:16;;;;;;;5.57;0.80;;;24.60;52.20;;;;;;10359793;28;20061;-54
2024/02/16 19:14:19;;;;;;;4.40;0.90;;;24.60;52.20;;;;;;10357121;28;20041;-51
2024/02/16 19:19:22;;;;;;;3.72;0.90;;;24.50;52.50;;;;;;10354052;28;20606;-53
2024/02/16 19:24:24;;;;;;;6.10;1.10;;;24.50;52.70;;;;;;10360908;28;20502;-50
2024/02/16 19:29:26;;;;;;;3.97;1.50;;;24.50;53.00;;;;;;10357245;28;20046;-50
2024/02/16 19:34:28;;;;;;;5.80;1.27;;;24.50;53.50;;;;;;10358869;28;20530;-51
2024/02/16 19:39:30;;;;;;;4.00;1.42;;;24.50;53.70;;;;;;10360992;28;20048;-50
2024/02/16 19:44:35;;;;;;;9.32;1.85;;;24.60;53.60;;;;;;10361608;28;20055;-53
2024/02/16 19:49:38;;;;;;;6.20;2.03;;;24.50;53.90;;;;;;10361985;28;20046;-51
2024/02/16 19:54:39;;;;;;;10.68;3.40;;;24.50;53.70;;;;;;10354600;28;20117;-49
2024/02/16 19:59:41;;;;;;;15.70;3.78;;;24.00;55.90;;;;;;10350023;28;20053;-52
2024/02/16 20:04:44;;;;;;;16.58;4.53;;;24.00;56.50;;;;;;10358455;28;20501;-53
2024/02/16 20:09:46;;;;;;;16.98;4.80;;;24.10;56.90;;;;;;10358011;28;20051;-52
2024/02/16 20:14:48;;;;;;;17.95;4.90;;;24.40;56.30;;;;;;10358321;28;20128;-52
2024/02/16 20:19:53;;;;;;;19.70;5.45;;;24.20;56.60;;;;;;10354389;28;20097;-51
2024/02/16 20:24:54;;;;;;;17.25;4.53;;;24.10;56.60;;;;;;10356834;28;20050;-52
2024/02/16 20:29:56;;;;;;;13.90;4.65;;;24.10;56.60;;;;;;10354382;28;20519;-51
2024/02/16 20:35:02;;;;;;;12.52;4.57;;;24.00;56.60;;;;;;10354824;28;20505;-51
2024/02/16 20:40:05;;;;;;;11.40;4.03;;;24.00;57.10;;;;;;10352543;28;20125;-52
2024/02/16 20:45:07;;;;;;;9.02;3.63;;;23.90;56.30;;;;;;10353477;28;20050;-51
2024/02/16 20:50:10;;;;;;;9.05;3.42;;;23.80;56.10;;;;;;10357998;28;20045;-53
2024/02/16 20:55:12;;;;;;;5.95;3.55;;;23.80;55.80;;;;;;10357315;28;20524;-49
2024/02/16 21:00:15;;;;;;;7.88;3.45;;;23.80;55.90;;;;;;10358271;28;20145;-50
2024/02/16 21:05:19;;;;;;;8.30;3.30;;;23.80;56.50;;;;;;10355435;28;20048;-50
2024/02/16 21:10:21;;;;;;;7.78;3.35;;;23.60;55.80;;;;;;10352811;28;20133;-49
2024/02/16 21:15:23;;;;;;;10.85;3.85;;;23.70;56.00;;;;;;10357489;28;20173;-51
2024/02/16 21:20:27;;;;;;;4.50;3.45;;;23.70;55.20;;;;;;10359777;28;20502;-54
2024/02/16 21:25:29;;;;;;;5.88;3.63;;;23.60;53.80;;;;;;10359092;28;20058;-51
2024/02/16 21:30:30;;;;;;;6.43;4.20;;;23.50;54.00;;;;;;10364053;28;20136;-55
2024/02/16 21:35:33;;;;;;;10.32;4.35;;;23.40;54.00;;;;;;10361106;28;20125;-52
2024/02/16 21:40:35;;;;;;;6.85;4.50;;;23.50;54.10;;;;;;10356557;28;20045;-56
2024/02/16 21:45:36;;;;;;;10.05;4.57;;;23.50;53.70;;;;;;10352722;28;20690;-50
2024/02/16 21:50:39;;;;;;;8.68;4.63;;;23.50;53.60;;;;;;10350253;28;20380;-51
2024/02/16 21:55:41;;;;;;;7.07;4.35;;;23.40;53.50;;;;;;10350993;28;20145;-55
2024/02/16 22:00:43;;;;;;;9.35;5.55;;;23.60;53.30;;;;;;10356664;28;20042;-57
2024/02/16 22:05:46;;;;;;;14.50;7.93;;;23.60;53.80;;;;;;10356560;28;20128;-56
2024/02/16 22:10:48;;;;;;;21.17;10.02;;;23.60;54.10;;;;;;10315527;28;20095;-56
2024/02/16 22:15:51;;;;;;;16.73;10.45;;;23.50;54.40;;;;;;10356400;28;20531;-54
2024/02/16 22:20:53;;;;;;;18.23;11.60;;;23.60;54.60;;;;;;10354550;28;20046;-55
2024/02/16 22:25:55;;;;;;;18.98;11.68;;;23.60;54.70;;;;;;10332340;28;20545;-55
2024/02/16 22:30:57;;;;;;;17.88;11.23;;;23.60;54.60;;;;;;10355162;28;20065;-52
2024/02/16 22:36:00;;;;;;;21.95;12.38;;;23.50;54.80;;;;;;10349117;28;20062;-54
2024/02/16 22:41:02;;;;;;;25.80;12.70;;;23.60;54.80;;;;;;10361445;28;20141;-57
2024/02/16 22:46:03;;;;;;;19.30;13.15;;;23.60;54.50;;;;;;10356680;28;20054;-55
2024/02/16 22:51:06;;;;;;;21.42;13.75;;;23.60;54.30;;;;;;10356396;28;20498;-56
2024/02/16 22:56:08;;;;;;;18.90;13.00;;;23.60;54.50;;;;;;10359920;28;20060;-55
2024/02/16 23:01:11;;;;;;;23.90;13.10;;;23.50;54.80;;;;;;10360846;28;20492;-56
2024/02/16 23:06:15;;;;;;;20.77;12.55;;;23.50;54.60;;;;;;10357296;28;20057;-52
2024/02/16 23:11:17;;;;;;;19.52;12.38;;;23.50;54.60;;;;;;10361347;28;20042;-56
2024/02/16 23:16:20;;;;;;;17.70;12.65;;;23.50;54.60;;;;;;10360714;28;20707;-56
2024/02/16 23:21:23;;;;;;;19.60;13.35;;;23.70;54.10;;;;;;10364558;28;20050;-53
2024/02/16 23:26:25;;;;;;;20.35;12.50;;;23.60;54.00;;;;;;10364033;28;20042;-56
2024/02/16 23:31:27;;;;;;;17.23;11.50;;;23.60;54.10;;;;;;10364886;28;20042;-55
2024/02/16 23:36:30;;;;;;;16.40;11.60;;;23.60;53.90;;;;;;10358938;28;20058;-54
2024/02/16 23:41:31;;;;;;;17.80;11.80;;;23.70;53.80;;;;;;10357041;28;20050;-52
2024/02/16 23:46:35;;;;;;;17.15;11.43;;;23.60;53.80;;;;;;10352908;28;20050;-53
2024/02/16 23:51:38;;;;;;;15.38;10.45;;;23.60;53.60;;;;;;10352462;28;20452;-56
2024/02/16 23:56:39;;;;;;;16.40;10.63;;;23.60;53.60;;;;;;10358437;28;20042;-51
